sensor_id;sensor_type;location;lat;lon;timestamp;pressure;altitude;pressure_sealevel;temperature;humidity
15419;BME280;7808;43.712;23.098;2022-07-29T00:01:33;100705.19;;;22.36;100.00
15419;BME280;7808;43.712;23.098;2022-07-29T00:04:00;100705.22;;;22.32;100.00
15419;BME280;7808;43.712;23.098;2022-07-29T00:06:27;100704.41;;;22.28;100.00
15419;BME280;7808;43.712;23.098;2022-07-29T00:08:54;100701.63;;;22.28;100.00
15419;BME280;7808;43.712;23.098;2022-07-29T00:11:21;100698.09;;;22.24;100.00
15419;BME280;7808;43.712;23.098;2022-07-29T00:13:48;100693.75;;;22.23;100.00
15419;BME280;7808;43.712;23.098;2022-07-29T00:16:16;100696.53;;;22.12;100.00
15419;BME280;7808;43.712;23.098;2022-07-29T00:18:43;100688.63;;;22.04;100.00
15419;BME280;7808;43.712;23.098;2022-07-29T00:21:10;100691.00;;;22.05;100.00
15419;BME280;7808;43.712;23.098;2022-07-29T00:23:37;100685.47;;;22.16;100.00
15419;BME280;7808;43.712;23.098;2022-07-29T00:26:04;100688.22;;;22.23;100.00
15419;BME280;7808;43.712;23.098;2022-07-29T00:28:31;100679.13;;;22.33;100.00
15419;BME280;7808;43.712;23.098;2022-07-29T00:30:58;100685.06;;;22.28;100.00
15419;BME280;7808;43.712;23.098;2022-07-29T00:33:28;100685.47;;;22.30;100.00
15419;BME280;7808;43.712;23.098;2022-07-29T00:35:55;100696.13;;;22.28;100.00
15419;BME280;7808;43.712;23.098;2022-07-29T00:38:21;100700.84;;;22.31;100.00
15419;BME280;7808;43.712;23.098;2022-07-29T00:40:48;100703.22;;;22.25;100.00
15419;BME280;7808;43.712;23.098;2022-07-29T00:43:16;100702.44;;;22.18;100.00
15419;BME280;7808;43.712;23.098;2022-07-29T00:45:43;100703.63;;;22.24;100.00
15419;BME280;7808;43.712;23.098;2022-07-29T00:48:10;100700.84;;;22.13;100.00
15419;BME280;7808;43.712;23.098;2022-07-29T00:50:39;100694.94;;;22.18;100.00
15419;BME280;7808;43.712;23.098;2022-07-29T00:53:07;100696.53;;;22.09;100.00
15419;BME280;7808;43.712;23.098;2022-07-29T00:55:34;100711.50;;;22.04;100.00
15419;BME280;7808;43.712;23.098;2022-07-29T00:58:02;100715.06;;;22.05;100.00
15419;BME280;7808;43.712;23.098;2022-07-29T01:00:29;100714.28;;;22.08;100.00
15419;BME280;7808;43.712;23.098;2022-07-29T01:02:56;100706.00;;;22.08;100.00
15419;BME280;7808;43.712;23.098;2022-07-29T01:05:25;100710.72;;;22.04;100.00
15419;BME280;7808;43.712;23.098;2022-07-29T01:07:54;100711.53;;;22.08;100.00
15419;BME280;7808;43.712;23.098;2022-07-29T01:10:24;100709.94;;;22.10;100.00
15419;BME280;7808;43.712;23.098;2022-07-29T01:12:52;100706.00;;;22.08;100.00
15419;BME280;7808;43.712;23.098;2022-07-29T01:15:22;100703.63;;;22.10;100.00
15419;BME280;7808;43.712;23.098;2022-07-29T01:17:56;100692.97;;;22.19;100.00
15419;BME280;7808;43.712;23.098;2022-07-29T01:20:34;100692.59;;;22.17;100.00
15419;BME280;7808;43.712;23.098;2022-07-29T01:23:28;100693.38;;;22.14;100.00
15419;BME280;7808;43.712;23.098;2022-07-29T01:26:20;100697.31;;;22.27;100.00
15419;BME280;7808;43.712;23.098;2022-07-29T01:28:58;100692.56;;;22.35;100.00
15419;BME280;7808;43.712;23.098;2022-07-29T01:31:32;100680.34;;;22.25;100.00
15419;BME280;7808;43.712;23.098;2022-07-29T01:34:04;100690.19;;;22.33;100.00
15419;BME280;7808;43.712;23.098;2022-07-29T01:36:36;100681.53;;;22.35;100.00
15419;BME280;7808;43.712;23.098;2022-07-29T01:39:07;100684.28;;;22.38;100.00
15419;BME280;7808;43.712;23.098;2022-07-29T01:41:37;100687.44;;;22.26;100.00
15419;BME280;7808;43.712;23.098;2022-07-29T01:44:13;100687.44;;;22.08;100.00
15419;BME280;7808;43.712;23.098;2022-07-29T01:46:45;100688.63;;;21.97;100.00
15419;BME280;7808;43.712;23.098;2022-07-29T01:49:19;100680.75;;;21.85;100.00
15419;BME280;7808;43.712;23.098;2022-07-29T01:51:49;100682.31;;;21.89;100.00
15419;BME280;7808;43.712;23.098;2022-07-29T01:54:20;100680.75;;;21.85;100.00
15419;BME280;7808;43.712;23.098;2022-07-29T01:56:53;100681.53;;;21.85;100.00
15419;BME280;7808;43.712;23.098;2022-07-29T01:59:23;100681.53;;;21.92;100.00
15419;BME280;7808;43.712;23.098;2022-07-29T02:01:53;100680.75;;;22.02;100.00
15419;BME280;7808;43.712;23.098;2022-07-29T02:04:21;100683.09;;;22.04;100.00
15419;BME280;7808;43.712;23.098;2022-07-29T02:06:51;100671.28;;;22.00;100.00
15419;BME280;7808;43.712;23.098;2022-07-29T02:09:20;100673.66;;;21.98;100.00
15419;BME280;7808;43.712;23.098;2022-07-29T02:11:53;100673.25;;;21.92;100.00
15419;BME280;7808;43.712;23.098;2022-07-29T02:14:23;100665.00;;;21.96;100.00
15419;BME280;7808;43.712;23.098;2022-07-29T02:16:53;100650.75;;;22.01;100.00
15419;BME280;7808;43.712;23.098;2022-07-29T02:19:22;100654.72;;;22.07;100.00
15419;BME280;7808;43.712;23.098;2022-07-29T02:21:52;100660.25;;;22.00;100.00
15419;BME280;7808;43.712;23.098;2022-07-29T02:24:20;100672.06;;;22.04;100.00
15419;BME280;7808;43.712;23.098;2022-07-29T02:26:49;100663.75;;;22.18;100.00
15419;BME280;7808;43.712;23.098;2022-07-29T02:29:21;100662.59;;;22.19;100.00
15419;BME280;7808;43.712;23.098;2022-07-29T02:31:50;100657.84;;;22.23;100.00
15419;BME280;7808;43.712;23.098;2022-07-29T02:34:20;100671.25;;;22.28;100.00
15419;BME280;7808;43.712;23.098;2022-07-29T02:36:48;100670.47;;;22.38;100.00
15419;BME280;7808;43.712;23.098;2022-07-29T02:39:16;100662.97;;;22.35;100.00
15419;BME280;7808;43.712;23.098;2022-07-29T02:41:46;100664.97;;;22.35;100.00
15419;BME280;7808;43.712;23.098;2022-07-29T02:44:15;100669.69;;;22.34;100.00
15419;BME280;7808;43.712;23.098;2022-07-29T02:46:48;100680.34;;;22.29;100.00
15419;BME280;7808;43.712;23.098;2022-07-29T02:49:26;100677.59;;;22.25;100.00
15419;BME280;7808;43.712;23.098;2022-07-29T02:51:57;100683.50;;;22.20;100.00
15419;BME280;7808;43.712;23.098;2022-07-29T02:54:30;100670.88;;;22.19;100.00
15419;BME280;7808;43.712;23.098;2022-07-29T02:56:59;100668.91;;;22.27;100.00
15419;BME280;7808;43.712;23.098;2022-07-29T02:59:28;100672.84;;;22.29;100.00
15419;BME280;7808;43.712;23.098;2022-07-29T03:01:57;100661.81;;;22.29;100.00
15419;BME280;7808;43.712;23.098;2022-07-29T03:04:27;100669.28;;;22.32;100.00
15419;BME280;7808;43.712;23.098;2022-07-29T03:06:57;100675.22;;;22.34;100.00
15419;BME280;7808;43.712;23.098;2022-07-29T03:09:25;100668.50;;;22.28;100.00
15419;BME280;7808;43.712;23.098;2022-07-29T03:11:54;100661.84;;;22.08;100.00
15419;BME280;7808;43.712;23.098;2022-07-29T03:14:21;100678.38;;;22.15;100.00
15419;BME280;7808;43.712;23.098;2022-07-29T03:16:50;100681.94;;;22.19;100.00
15419;BME280;7808;43.712;23.098;2022-07-29T03:19:19;100681.94;;;22.12;100.00
15419;BME280;7808;43.712;23.098;2022-07-29T03:21:48;100679.19;;;22.05;100.00
15419;BME280;7808;43.712;23.098;2022-07-29T03:24:30;100670.88;;;22.08;100.00
15419;BME280;7808;43.712;23.098;2022-07-29T03:26:58;100662.63;;;21.91;100.00
15419;BME280;7808;43.712;23.098;2022-07-29T03:29:25;100676.41;;;21.98;100.00
15419;BME280;7808;43.712;23.098;2022-07-29T03:31:53;100673.28;;;21.96;100.00
15419;BME280;7808;43.712;23.098;2022-07-29T03:34:20;100684.69;;;21.91;100.00
15419;BME280;7808;43.712;23.098;2022-07-29T03:36:50;100649.94;;;21.65;100.00
15419;BME280;7808;43.712;23.098;2022-07-29T03:39:20;100664.16;;;21.78;100.00
15419;BME280;7808;43.712;23.098;2022-07-29T03:41:49;100670.44;;;21.82;100.00
15419;BME280;7808;43.712;23.098;2022-07-29T03:44:20;100689.81;;;21.92;100.00
15419;BME280;7808;43.712;23.098;2022-07-29T03:46:48;100687.06;;;22.06;100.00
15419;BME280;7808;43.712;23.098;2022-07-29T03:49:18;100687.06;;;22.17;100.00
15419;BME280;7808;43.712;23.098;2022-07-29T03:51:46;100687.84;;;22.21;100.00
15419;BME280;7808;43.712;23.098;2022-07-29T03:54:15;100679.13;;;22.33;100.00
15419;BME280;7808;43.712;23.098;2022-07-29T03:56:45;100682.66;;;22.48;100.00
15419;BME280;7808;43.712;23.098;2022-07-29T03:59:13;100689.38;;;22.50;100.00
15419;BME280;7808;43.712;23.098;2022-07-29T04:01:41;100685.03;;;22.53;100.00
15419;BME280;7808;43.712;23.098;2022-07-29T04:04:09;100687.41;;;22.54;100.00
15419;BME280;7808;43.712;23.098;2022-07-29T04:06:40;100680.69;;;22.59;100.00
15419;BME280;7808;43.712;23.098;2022-07-29T04:09:07;100685.00;;;22.60;100.00
15419;BME280;7808;43.712;23.098;2022-07-29T04:11:36;100690.94;;;22.55;100.00
15419;BME280;7808;43.712;23.098;2022-07-29T04:14:04;100690.97;;;22.51;100.00
15419;BME280;7808;43.712;23.098;2022-07-29T04:16:32;100690.56;;;22.46;100.00
15419;BME280;7808;43.712;23.098;2022-07-29T04:18:59;100674.81;;;22.32;100.00
15419;BME280;7808;43.712;23.098;2022-07-29T04:21:26;100689.78;;;22.38;100.00
15419;BME280;7808;43.712;23.098;2022-07-29T04:23:52;100694.16;;;22.32;100.00
15419;BME280;7808;43.712;23.098;2022-07-29T04:26:20;100697.31;;;22.34;100.00
15419;BME280;7808;43.712;23.098;2022-07-29T04:28:48;100698.06;;;22.52;100.00
15419;BME280;7808;43.712;23.098;2022-07-29T04:31:15;100705.16;;;22.53;100.00
15419;BME280;7808;43.712;23.098;2022-07-29T04:33:42;100710.72;;;22.64;100.00
15419;BME280;7808;43.712;23.098;2022-07-29T04:36:09;100704.75;;;22.72;100.00
15419;BME280;7808;43.712;23.098;2022-07-29T04:38:37;100703.16;;;22.82;100.00
15419;BME280;7808;43.712;23.098;2022-07-29T04:41:04;100712.59;;;22.92;100.00
15419;BME280;7808;43.712;23.098;2022-07-29T04:43:32;100713.38;;;22.92;100.00
15419;BME280;7808;43.712;23.098;2022-07-29T04:46:00;100701.22;;;22.79;100.00
15419;BME280;7808;43.712;23.098;2022-07-29T04:48:27;100700.41;;;22.78;100.00
15419;BME280;7808;43.712;23.098;2022-07-29T04:50:55;100706.31;;;22.80;100.00
15419;BME280;7808;43.712;23.098;2022-07-29T04:53:22;100709.84;;;22.84;100.00
15419;BME280;7808;43.712;23.098;2022-07-29T04:55:49;100707.47;;;22.86;100.00
15419;BME280;7808;43.712;23.098;2022-07-29T04:58:16;100712.22;;;22.89;100.00
15419;BME280;7808;43.712;23.098;2022-07-29T05:00:43;100716.16;;;22.96;100.00
15419;BME280;7808;43.712;23.098;2022-07-29T05:03:11;100727.16;;;23.10;100.00
15419;BME280;7808;43.712;23.098;2022-07-29T05:05:38;100718.41;;;23.18;100.00
15419;BME280;7808;43.712;23.098;2022-07-29T05:08:06;100724.72;;;23.26;100.00
15419;BME280;7808;43.712;23.098;2022-07-29T05:10:33;100729.94;;;23.06;100.00
15419;BME280;7808;43.712;23.098;2022-07-29T05:13:03;100735.03;;;23.11;100.00
15419;BME280;7808;43.712;23.098;2022-07-29T05:15:30;100734.19;;;23.28;100.00
15419;BME280;7808;43.712;23.098;2022-07-29T05:17:57;100726.69;;;23.32;100.00
15419;BME280;7808;43.712;23.098;2022-07-29T05:20:26;100732.59;;;23.38;100.00
15419;BME280;7808;43.712;23.098;2022-07-29T05:22:54;100729.41;;;23.46;100.00
15419;BME280;7808;43.712;23.098;2022-07-29T05:25:21;100738.84;;;23.52;100.00
15419;BME280;7808;43.712;23.098;2022-07-29T05:27:48;100741.19;;;23.61;100.00
15419;BME280;7808;43.712;23.098;2022-07-29T05:30:15;100741.13;;;23.65;100.00
15419;BME280;7808;43.712;23.098;2022-07-29T05:32:42;100739.25;;;23.51;100.00
15419;BME280;7808;43.712;23.098;2022-07-29T05:35:09;100758.63;;;23.55;100.00
15419;BME280;7808;43.712;23.098;2022-07-29T05:37:38;100751.91;;;23.52;100.00
15419;BME280;7808;43.712;23.098;2022-07-29T05:40:06;100746.44;;;23.34;100.00
15419;BME280;7808;43.712;23.098;2022-07-29T05:42:33;100753.94;;;23.34;100.00
15419;BME280;7808;43.712;23.098;2022-07-29T05:45:01;100749.16;;;23.52;100.00
15419;BME280;7808;43.712;23.098;2022-07-29T05:47:29;100749.88;;;23.63;100.00
15419;BME280;7808;43.712;23.098;2022-07-29T05:49:56;100755.38;;;23.67;100.00
15419;BME280;7808;43.712;23.098;2022-07-29T05:52:23;100753.03;;;23.62;100.00
15419;BME280;7808;43.712;23.098;2022-07-29T05:54:51;100746.69;;;23.65;100.00
15419;BME280;7808;43.712;23.098;2022-07-29T05:57:20;100754.50;;;23.80;100.00
15419;BME280;7808;43.712;23.098;2022-07-29T05:59:48;100752.47;;;23.91;100.00
15419;BME280;7808;43.712;23.098;2022-07-29T06:02:16;100740.91;;;24.07;100.00
15419;BME280;7808;43.712;23.098;2022-07-29T06:04:43;100757.09;;;24.12;100.00
15419;BME280;7808;43.712;23.098;2022-07-29T06:07:10;100756.59;;;24.24;100.00
15419;BME280;7808;43.712;23.098;2022-07-29T06:09:37;100757.19;;;24.49;100.00
15419;BME280;7808;43.712;23.098;2022-07-29T06:12:06;100756.97;;;24.70;100.00
15419;BME280;7808;43.712;23.098;2022-07-29T06:14:33;100748.06;;;24.93;100.00
15419;BME280;7808;43.712;23.098;2022-07-29T06:17:01;100753.31;;;25.18;100.00
15419;BME280;7808;43.712;23.098;2022-07-29T06:19:27;100751.53;;;25.34;100.00
15419;BME280;7808;43.712;23.098;2022-07-29T06:21:54;100757.16;;;25.61;100.00
15419;BME280;7808;43.712;23.098;2022-07-29T06:24:21;100754.50;;;25.81;100.00
15419;BME280;7808;43.712;23.098;2022-07-29T06:26:48;100745.34;;;25.84;100.00
15419;BME280;7808;43.712;23.098;2022-07-29T06:29:17;100752.34;;;25.92;100.00
15419;BME280;7808;43.712;23.098;2022-07-29T06:31:43;100749.19;;;25.90;100.00
15419;BME280;7808;43.712;23.098;2022-07-29T06:34:10;100747.84;;;25.75;100.00
15419;BME280;7808;43.712;23.098;2022-07-29T06:36:37;100738.41;;;25.69;100.00
15419;BME280;7808;43.712;23.098;2022-07-29T06:39:05;100737.69;;;25.65;100.00
15419;BME280;7808;43.712;23.098;2022-07-29T06:41:33;100750.06;;;25.87;100.00
15419;BME280;7808;43.712;23.098;2022-07-29T06:44:00;100751.00;;;25.77;100.00
15419;BME280;7808;43.712;23.098;2022-07-29T06:46:28;100752.19;;;25.76;100.00
15419;BME280;7808;43.712;23.098;2022-07-29T06:48:55;100747.69;;;25.85;100.00
15419;BME280;7808;43.712;23.098;2022-07-29T06:51:22;100754.72;;;26.20;100.00
15419;BME280;7808;43.712;23.098;2022-07-29T06:53:50;100750.13;;;26.33;100.00
15419;BME280;7808;43.712;23.098;2022-07-29T06:56:17;100755.84;;;26.69;100.00
15419;BME280;7808;43.712;23.098;2022-07-29T06:58:44;100748.63;;;27.14;100.00
15419;BME280;7808;43.712;23.098;2022-07-29T07:01:11;100752.72;;;27.49;100.00
15419;BME280;7808;43.712;23.098;2022-07-29T07:03:40;100751.19;;;27.64;99.96
15419;BME280;7808;43.712;23.098;2022-07-29T07:06:07;100731.88;;;27.73;100.00
15419;BME280;7808;43.712;23.098;2022-07-29T07:08:34;100742.44;;;27.82;98.97
15419;BME280;7808;43.712;23.098;2022-07-29T07:11:01;100748.97;;;27.75;99.14
15419;BME280;7808;43.712;23.098;2022-07-29T07:13:29;100750.19;;;27.74;97.60
15419;BME280;7808;43.712;23.098;2022-07-29T07:16:00;100760.47;;;27.93;98.78
15419;BME280;7808;43.712;23.098;2022-07-29T07:18:27;100757.75;;;27.74;96.07
15419;BME280;7808;43.712;23.098;2022-07-29T07:20:56;100752.16;;;27.58;100.00
15419;BME280;7808;43.712;23.098;2022-07-29T07:23:24;100740.50;;;27.79;97.10
15419;BME280;7808;43.712;23.098;2022-07-29T07:25:51;100752.81;;;27.97;96.32
15419;BME280;7808;43.712;23.098;2022-07-29T07:28:19;100751.47;;;28.22;95.01
15419;BME280;7808;43.712;23.098;2022-07-29T07:30:46;100744.50;;;28.30;95.89
15419;BME280;7808;43.712;23.098;2022-07-29T07:33:13;100751.88;;;28.52;94.70
15419;BME280;7808;43.712;23.098;2022-07-29T07:35:40;100743.06;;;28.54;92.81
15419;BME280;7808;43.712;23.098;2022-07-29T07:38:08;100749.47;;;28.83;93.06
15419;BME280;7808;43.712;23.098;2022-07-29T07:40:35;100754.19;;;28.86;90.57
15419;BME280;7808;43.712;23.098;2022-07-29T07:43:02;100748.78;;;28.95;91.64
15419;BME280;7808;43.712;23.098;2022-07-29T07:45:29;100758.91;;;28.89;90.23
15419;BME280;7808;43.712;23.098;2022-07-29T07:47:57;100763.75;;;29.01;89.62
15419;BME280;7808;43.712;23.098;2022-07-29T07:50:24;100757.97;;;28.80;87.58
15419;BME280;7808;43.712;23.098;2022-07-29T07:52:53;100756.34;;;28.34;91.18
15419;BME280;7808;43.712;23.098;2022-07-29T07:55:21;100758.78;;;28.64;92.65
15419;BME280;7808;43.712;23.098;2022-07-29T07:57:48;100753.25;;;29.05;89.70
15419;BME280;7808;43.712;23.098;2022-07-29T08:00:16;100748.25;;;29.13;87.76
15419;BME280;7808;43.712;23.098;2022-07-29T08:02:43;100755.66;;;28.91;87.99
15419;BME280;7808;43.712;23.098;2022-07-29T08:05:12;100755.47;;;28.98;88.73
15419;BME280;7808;43.712;23.098;2022-07-29T08:07:42;100752.66;;;28.98;88.85
15419;BME280;7808;43.712;23.098;2022-07-29T08:10:10;100744.28;;;28.98;88.13
15419;BME280;7808;43.712;23.098;2022-07-29T08:12:38;100749.38;;;29.15;87.47
15419;BME280;7808;43.712;23.098;2022-07-29T08:15:06;100756.75;;;29.51;88.16
15419;BME280;7808;43.712;23.098;2022-07-29T08:17:34;100754.31;;;29.65;86.44
15419;BME280;7808;43.712;23.098;2022-07-29T08:20:01;100754.41;;;29.62;87.03
15419;BME280;7808;43.712;23.098;2022-07-29T08:22:28;100754.69;;;29.80;86.58
15419;BME280;7808;43.712;23.098;2022-07-29T08:24:54;100747.75;;;29.97;84.87
15419;BME280;7808;43.712;23.098;2022-07-29T08:27:22;100741.44;;;30.31;85.90
15419;BME280;7808;43.712;23.098;2022-07-29T08:29:50;100744.56;;;30.80;84.44
15419;BME280;7808;43.712;23.098;2022-07-29T08:32:17;100750.47;;;30.60;78.75
15419;BME280;7808;43.712;23.098;2022-07-29T08:34:44;100738.63;;;30.31;82.45
15419;BME280;7808;43.712;23.098;2022-07-29T08:37:12;100736.88;;;30.37;82.25
15419;BME280;7808;43.712;23.098;2022-07-29T08:39:39;100736.75;;;30.40;83.85
15419;BME280;7808;43.712;23.098;2022-07-29T08:42:06;100731.59;;;30.26;84.85
15419;BME280;7808;43.712;23.098;2022-07-29T08:44:35;100727.78;;;30.33;83.50
15419;BME280;7808;43.712;23.098;2022-07-29T08:47:04;100733.03;;;30.56;81.75
15419;BME280;7808;43.712;23.098;2022-07-29T08:49:33;100726.94;;;30.11;81.23
15419;BME280;7808;43.712;23.098;2022-07-29T08:52:01;100725.00;;;30.20;81.86
15419;BME280;7808;43.712;23.098;2022-07-29T08:54:29;100718.34;;;30.52;85.89
15419;BME280;7808;43.712;23.098;2022-07-29T08:56:57;100732.91;;;30.81;79.43
15419;BME280;7808;43.712;23.098;2022-07-29T08:59:25;100721.53;;;30.41;80.44
15419;BME280;7808;43.712;23.098;2022-07-29T09:01:54;100709.59;;;30.63;82.23
15419;BME280;7808;43.712;23.098;2022-07-29T09:04:24;100723.03;;;30.89;79.52
15419;BME280;7808;43.712;23.098;2022-07-29T09:06:56;100712.59;;;31.33;80.75
15419;BME280;7808;43.712;23.098;2022-07-29T09:09:23;100710.91;;;31.36;74.85
15419;BME280;7808;43.712;23.098;2022-07-29T09:11:50;100707.00;;;31.33;75.04
15419;BME280;7808;43.712;23.098;2022-07-29T09:14:18;100702.78;;;31.07;74.17
15419;BME280;7808;43.712;23.098;2022-07-29T09:16:47;100694.91;;;31.14;72.51
15419;BME280;7808;43.712;23.098;2022-07-29T09:19:26;100707.41;;;31.23;72.47
15419;BME280;7808;43.712;23.098;2022-07-29T09:21:54;100702.28;;;31.30;71.33
15419;BME280;7808;43.712;23.098;2022-07-29T09:24:26;100702.81;;;31.59;70.97
15419;BME280;7808;43.712;23.098;2022-07-29T09:26:54;100702.06;;;31.77;72.16
15419;BME280;7808;43.712;23.098;2022-07-29T09:29:22;100696.53;;;31.95;70.69
15419;BME280;7808;43.712;23.098;2022-07-29T09:31:52;100700.31;;;32.01;68.58
15419;BME280;7808;43.712;23.098;2022-07-29T09:34:24;100690.78;;;31.99;66.59
15419;BME280;7808;43.712;23.098;2022-07-29T09:36:52;100688.84;;;31.87;68.62
15419;BME280;7808;43.712;23.098;2022-07-29T09:39:29;100677.81;;;31.83;69.50
15419;BME280;7808;43.712;23.098;2022-07-29T09:41:59;100678.22;;;31.72;70.23
15419;BME280;7808;43.712;23.098;2022-07-29T09:44:26;100686.41;;;31.89;67.56
15419;BME280;7808;43.712;23.098;2022-07-29T09:46:58;100672.28;;;32.19;68.73
15419;BME280;7808;43.712;23.098;2022-07-29T09:49:33;100660.63;;;32.39;67.72
15419;BME280;7808;43.712;23.098;2022-07-29T09:52:03;100675.75;;;32.78;66.10
15419;BME280;7808;43.712;23.098;2022-07-29T09:54:30;100670.56;;;32.94;62.34
15419;BME280;7808;43.712;23.098;2022-07-29T09:57:03;100673.41;;;32.85;62.01
15419;BME280;7808;43.712;23.098;2022-07-29T09:59:31;100668.13;;;32.78;64.59
15419;BME280;7808;43.712;23.098;2022-07-29T10:01:58;100667.63;;;33.07;63.68
15419;BME280;7808;43.712;23.098;2022-07-29T10:04:38;100668.47;;;33.31;60.62
15419;BME280;7808;43.712;23.098;2022-07-29T10:07:05;100662.06;;;33.40;61.59
15419;BME280;7808;43.712;23.098;2022-07-29T10:09:33;100667.44;;;33.61;62.45
15419;BME280;7808;43.712;23.098;2022-07-29T10:12:07;100660.41;;;33.90;60.87
15419;BME280;7808;43.712;23.098;2022-07-29T10:14:36;100664.94;;;33.87;60.78
15419;BME280;7808;43.712;23.098;2022-07-29T10:17:04;100660.63;;;34.10;55.90
15419;BME280;7808;43.712;23.098;2022-07-29T10:19:32;100652.91;;;33.63;56.78
15419;BME280;7808;43.712;23.098;2022-07-29T10:22:03;100653.81;;;33.69;61.62
15419;BME280;7808;43.712;23.098;2022-07-29T10:24:31;100657.94;;;33.83;55.88
15419;BME280;7808;43.712;23.098;2022-07-29T10:26:59;100642.91;;;33.20;60.45
15419;BME280;7808;43.712;23.098;2022-07-29T10:29:27;100642.66;;;32.91;61.67
15419;BME280;7808;43.712;23.098;2022-07-29T10:32:24;100653.13;;;32.72;61.30
15419;BME280;7808;43.712;23.098;2022-07-29T10:35:09;100645.78;;;32.38;62.96
15419;BME280;7808;43.712;23.098;2022-07-29T10:37:51;100641.91;;;32.18;64.15
15419;BME280;7808;43.712;23.098;2022-07-29T10:40:26;100638.41;;;31.96;65.88
15419;BME280;7808;43.712;23.098;2022-07-29T10:43:17;100625.66;;;32.04;66.40
15419;BME280;7808;43.712;23.098;2022-07-29T10:45:47;100630.66;;;32.36;64.12
15419;BME280;7808;43.712;23.098;2022-07-29T10:48:14;100625.38;;;32.47;62.16
15419;BME280;7808;43.712;23.098;2022-07-29T10:50:55;100622.56;;;32.20;63.60
15419;BME280;7808;43.712;23.098;2022-07-29T10:53:24;100622.34;;;31.78;63.89
15419;BME280;7808;43.712;23.098;2022-07-29T10:56:23;100620.25;;;31.60;64.86
15419;BME280;7808;43.712;23.098;2022-07-29T10:59:24;100612.38;;;31.37;65.50
15419;BME280;7808;43.712;23.098;2022-07-29T11:01:52;100615.69;;;31.14;65.20
15419;BME280;7808;43.712;23.098;2022-07-29T11:07:19;100605.66;;;31.74;66.17
15419;BME280;7808;43.712;23.098;2022-07-29T11:10:21;100610.41;;;32.14;66.08
15419;BME280;7808;43.712;23.098;2022-07-29T11:12:49;100616.03;;;32.41;61.17
15419;BME280;7808;43.712;23.098;2022-07-29T11:15:18;100603.03;;;32.80;63.87
15419;BME280;7808;43.712;23.098;2022-07-29T11:18:07;100615.06;;;33.31;63.28
15419;BME280;7808;43.712;23.098;2022-07-29T11:20:37;100610.19;;;33.73;61.12
15419;BME280;7808;43.712;23.098;2022-07-29T11:23:22;100607.66;;;33.52;55.79
15419;BME280;7808;43.712;23.098;2022-07-29T11:26:17;100598.81;;;33.02;57.56
15419;BME280;7808;43.712;23.098;2022-07-29T11:29:03;100585.16;;;33.52;57.50
15419;BME280;7808;43.712;23.098;2022-07-29T11:31:38;100593.03;;;33.39;55.49
15419;BME280;7808;43.712;23.098;2022-07-29T11:34:20;100589.84;;;33.46;55.27
15419;BME280;7808;43.712;23.098;2022-07-29T11:37:19;100585.34;;;33.16;56.89
15419;BME280;7808;43.712;23.098;2022-07-29T11:40:08;100582.13;;;33.32;59.51
15419;BME280;7808;43.712;23.098;2022-07-29T11:42:43;100585.31;;;33.57;56.13
15419;BME280;7808;43.712;23.098;2022-07-29T11:45:25;100583.09;;;33.85;54.21
15419;BME280;7808;43.712;23.098;2022-07-29T11:47:59;100574.97;;;34.02;54.13
15419;BME280;7808;43.712;23.098;2022-07-29T11:50:36;100578.47;;;34.20;54.75
15419;BME280;7808;43.712;23.098;2022-07-29T11:53:10;100572.22;;;34.16;54.45
15419;BME280;7808;43.712;23.098;2022-07-29T11:55:38;100573.44;;;34.01;53.40
15419;BME280;7808;43.712;23.098;2022-07-29T11:58:07;100570.94;;;33.79;52.77
15419;BME280;7808;43.712;23.098;2022-07-29T12:00:36;100565.25;;;33.88;53.71
15419;BME280;7808;43.712;23.098;2022-07-29T12:03:06;100569.13;;;34.14;54.00
15419;BME280;7808;43.712;23.098;2022-07-29T12:05:36;100556.94;;;34.47;53.93
15419;BME280;7808;43.712;23.098;2022-07-29T12:08:12;100556.41;;;34.72;55.25
15419;BME280;7808;43.712;23.098;2022-07-29T12:10:40;100559.97;;;34.87;50.38
15419;BME280;7808;43.712;23.098;2022-07-29T12:13:09;100545.69;;;34.76;53.06
15419;BME280;7808;43.712;23.098;2022-07-29T12:15:36;100555.56;;;35.15;52.80
15419;BME280;7808;43.712;23.098;2022-07-29T12:18:17;100555.28;;;35.48;51.04
15419;BME280;7808;43.712;23.098;2022-07-29T12:20:46;100541.63;;;35.61;50.56
15419;BME280;7808;43.712;23.098;2022-07-29T12:23:14;100544.53;;;35.87;49.70
15419;BME280;7808;43.712;23.098;2022-07-29T12:25:43;100541.81;;;35.98;49.00
15419;BME280;7808;43.712;23.098;2022-07-29T12:28:12;100549.31;;;35.81;48.59
15419;BME280;7808;43.712;23.098;2022-07-29T12:30:44;100537.31;;;35.66;51.63
15419;BME280;7808;43.712;23.098;2022-07-29T12:33:19;100539.53;;;35.41;47.95
15419;BME280;7808;43.712;23.098;2022-07-29T12:35:49;100534.22;;;35.43;51.15
15419;BME280;7808;43.712;23.098;2022-07-29T12:38:17;100527.09;;;35.68;48.73
15419;BME280;7808;43.712;23.098;2022-07-29T12:40:45;100527.25;;;35.24;48.58
15419;BME280;7808;43.712;23.098;2022-07-29T12:43:15;100528.13;;;35.30;48.69
15419;BME280;7808;43.712;23.098;2022-07-29T12:45:43;100525.44;;;35.21;49.77
15419;BME280;7808;43.712;23.098;2022-07-29T12:48:11;100516.97;;;35.21;50.11
15419;BME280;7808;43.712;23.098;2022-07-29T12:50:52;100519.09;;;35.46;49.25
15419;BME280;7808;43.712;23.098;2022-07-29T12:53:20;100511.66;;;35.43;48.45
15419;BME280;7808;43.712;23.098;2022-07-29T12:55:47;100500.38;;;35.43;46.72
15419;BME280;7808;43.712;23.098;2022-07-29T12:58:28;100504.84;;;35.15;49.14
15419;BME280;7808;43.712;23.098;2022-07-29T13:01:04;100494.50;;;34.92;47.85
15419;BME280;7808;43.712;23.098;2022-07-29T13:03:51;100492.59;;;35.18;50.92